createdAt,value
2024-01-20T00:02:15.228Z,-0.20
2024-01-20T00:04:43.450Z,-0.20
2024-01-20T00:07:11.783Z,-0.20
2024-01-20T00:09:49.450Z,-0.20
2024-01-20T00:12:19.175Z,-0.20
2024-01-20T00:14:48.776Z,-0.20
2024-01-20T00:17:23.775Z,-0.20
2024-01-20T00:19:55.856Z,-0.20
2024-01-20T00:22:24.724Z,-0.20
2024-01-20T00:24:53.630Z,-0.20
2024-01-20T00:27:22.423Z,-0.20
2024-01-20T00:29:51.728Z,-0.20
2024-01-20T00:32:20.044Z,-0.20
2024-01-20T00:34:59.564Z,-0.10
2024-01-20T00:37:34.421Z,-0.10
2024-01-20T00:40:02.428Z,0.00
2024-01-20T00:42:30.404Z,0.00
2024-01-20T00:44:59.683Z,0.00
2024-01-20T00:47:27.624Z,0.00
2024-01-20T00:49:56.165Z,0.00
2024-01-20T00:52:24.201Z,0.00
2024-01-20T00:54:52.740Z,0.00
2024-01-20T00:57:20.717Z,0.00
2024-01-20T00:59:48.818Z,0.00
2024-01-20T01:02:19.895Z,0.00
2024-01-20T01:04:48.060Z,0.00
2024-01-20T01:07:16.070Z,0.00
2024-01-20T01:09:44.065Z,0.00
2024-01-20T01:12:12.089Z,0.00
2024-01-20T01:14:40.058Z,0.00
2024-01-20T01:17:08.469Z,0.00
2024-01-20T01:19:37.787Z,0.00
2024-01-20T01:22:06.041Z,0.00
2024-01-20T01:24:34.006Z,-0.10
2024-01-20T01:27:02.077Z,-0.10
2024-01-20T01:29:30.137Z,-0.10
2024-01-20T01:31:58.221Z,-0.10
2024-01-20T01:34:26.243Z,-0.10
2024-01-20T01:36:55.510Z,-0.10
2024-01-20T01:39:23.421Z,-0.20
2024-01-20T01:41:51.418Z,-0.20
2024-01-20T01:44:19.385Z,-0.20
2024-01-20T01:46:47.645Z,-0.20
2024-01-20T01:49:16.045Z,-0.20
2024-01-20T01:51:44.571Z,-0.20
2024-01-20T01:54:14.438Z,-0.20
2024-01-20T01:56:45.600Z,-0.20
2024-01-20T01:59:13.776Z,-0.30
2024-01-20T02:01:41.739Z,-0.30
2024-01-20T02:04:09.805Z,-0.30
2024-01-20T02:06:37.777Z,-0.30
2024-01-20T02:09:05.855Z,-0.30
2024-01-20T02:11:35.475Z,-0.30
2024-01-20T02:14:04.487Z,-0.40
2024-01-20T02:16:32.413Z,-0.40
2024-01-20T02:19:04.095Z,-0.40
2024-01-20T02:21:33.562Z,-0.30
2024-01-20T02:24:04.831Z,-0.40
2024-01-20T02:26:32.792Z,-0.40
2024-01-20T02:29:00.682Z,-0.40
2024-01-20T02:31:28.814Z,-0.40
2024-01-20T02:33:56.889Z,-0.40
2024-01-20T02:36:24.942Z,-0.30
2024-01-20T02:38:52.924Z,-0.40
2024-01-20T02:41:22.259Z,-0.40
2024-01-20T02:43:50.213Z,-0.40
2024-01-20T02:46:18.182Z,-0.40
2024-01-20T02:48:46.162Z,-0.40
2024-01-20T02:51:14.280Z,-0.40
2024-01-20T02:53:42.236Z,-0.40
2024-01-20T02:56:10.427Z,-0.40
2024-01-20T02:58:39.654Z,-0.40
2024-01-20T03:01:08.464Z,-0.40
2024-01-20T03:03:36.473Z,-0.40
2024-01-20T03:06:04.770Z,-0.40
2024-01-20T03:08:32.698Z,-0.40
2024-01-20T03:11:00.694Z,-0.40
2024-01-20T03:13:28.721Z,-0.40
2024-01-20T03:15:58.031Z,-0.40
2024-01-20T03:18:25.962Z,-0.40
2024-01-20T03:20:54.006Z,-0.50
2024-01-20T03:23:21.973Z,-0.50
2024-01-20T03:25:49.860Z,-0.50
2024-01-20T03:28:17.767Z,-0.50
2024-01-20T03:30:45.857Z,-0.50
2024-01-20T03:33:15.620Z,-0.50
2024-01-20T03:35:43.675Z,-0.40
2024-01-20T03:38:11.550Z,-0.50
2024-01-20T03:40:39.476Z,-0.50
2024-01-20T03:43:07.413Z,-0.50
2024-01-20T03:45:35.303Z,-0.50
2024-01-20T03:48:03.606Z,-0.40
2024-01-20T03:50:33.030Z,-0.40
2024-01-20T03:53:01.020Z,-0.40
2024-01-20T03:55:28.946Z,-0.40
2024-01-20T03:57:56.872Z,-0.40
2024-01-20T04:00:24.945Z,-0.40
2024-01-20T04:02:52.961Z,-0.40
2024-01-20T04:05:20.987Z,-0.40
2024-01-20T04:07:50.377Z,-0.40
2024-01-20T04:10:18.672Z,-0.30
2024-01-20T04:12:46.624Z,-0.30
2024-01-20T04:15:14.583Z,-0.30
2024-01-20T04:17:42.649Z,-0.30
2024-01-20T04:20:11.692Z,-0.30
2024-01-20T04:22:39.641Z,-0.30
2024-01-20T04:25:10.306Z,-0.30
2024-01-20T04:27:41.429Z,-0.30
2024-01-20T04:30:10.894Z,-0.30
2024-01-20T04:32:38.957Z,-0.20
2024-01-20T04:35:07.864Z,-0.20
2024-01-20T04:37:37.977Z,-0.20
2024-01-20T04:40:06.655Z,-0.20
2024-01-20T04:42:35.992Z,-0.20
2024-01-20T04:45:05.739Z,-0.20
2024-01-20T04:47:34.191Z,-0.20
2024-01-20T04:50:02.271Z,-0.20
2024-01-20T04:52:30.318Z,-0.20
2024-01-20T04:54:58.251Z,-0.20
2024-01-20T04:57:26.420Z,-0.20
2024-01-20T04:59:55.734Z,-0.20
2024-01-20T05:02:23.783Z,-0.20
2024-01-20T05:04:51.727Z,-0.20
2024-01-20T05:07:20.048Z,-0.10
2024-01-20T05:09:48.000Z,-0.10
2024-01-20T05:12:16.019Z,-0.10
2024-01-20T05:14:43.943Z,-0.20
2024-01-20T05:17:13.199Z,-0.20
2024-01-20T05:19:41.369Z,-0.20
2024-01-20T05:22:09.527Z,-0.10
2024-01-20T05:24:37.432Z,-0.20
2024-01-20T05:27:06.227Z,-0.20
2024-01-20T05:29:34.182Z,-0.20
2024-01-20T05:32:02.801Z,-0.20
2024-01-20T05:34:32.114Z,-0.20
2024-01-20T05:37:00.179Z,-0.20
2024-01-20T05:39:28.336Z,-0.20
2024-01-20T05:41:56.467Z,-0.20
2024-01-20T05:44:24.439Z,-0.30
2024-01-20T05:46:52.386Z,-0.30
2024-01-20T05:49:20.340Z,-0.30
2024-01-20T05:51:49.674Z,-0.30
2024-01-20T05:54:17.669Z,-0.30
2024-01-20T05:56:45.700Z,-0.30
2024-01-20T05:59:13.721Z,-0.40
2024-01-20T06:01:41.664Z,-0.40
2024-01-20T06:04:09.618Z,-0.40
2024-01-20T06:06:37.764Z,-0.40
2024-01-20T06:09:07.114Z,-0.40
2024-01-20T06:11:35.153Z,-0.40
2024-01-20T06:14:03.421Z,-0.40
2024-01-20T06:16:31.444Z,-0.40
2024-01-20T06:18:59.438Z,-0.40
2024-01-20T06:21:27.564Z,-0.40
2024-01-20T06:23:55.615Z,-0.40
2024-01-20T06:26:24.953Z,-0.50
2024-01-20T06:28:52.853Z,-0.50
2024-01-20T06:31:24.826Z,-0.50
2024-01-20T06:33:53.210Z,-0.50
2024-01-20T06:36:22.298Z,-0.50
2024-01-20T06:38:50.580Z,-0.50
2024-01-20T06:41:18.727Z,-0.50
2024-01-20T06:43:48.014Z,-0.50
2024-01-20T06:46:16.024Z,-0.50
2024-01-20T06:48:44.321Z,-0.50
2024-01-20T06:51:16.472Z,-0.50
2024-01-20T06:53:45.106Z,-0.50
2024-01-20T06:56:13.181Z,-0.50
2024-01-20T06:58:41.205Z,-0.50
2024-01-20T07:01:11.950Z,-0.50
2024-01-20T07:03:39.958Z,-0.50
2024-01-20T07:06:08.617Z,-0.50
2024-01-20T07:08:36.809Z,-0.50
2024-01-20T07:11:09.894Z,-0.50
2024-01-20T07:13:38.947Z,-0.50
2024-01-20T07:16:12.590Z,-0.50
2024-01-20T07:18:42.313Z,-0.50
2024-01-20T07:21:10.572Z,-0.50
2024-01-20T07:23:38.600Z,-0.50
2024-01-20T07:26:06.663Z,-0.50
2024-01-20T07:28:34.675Z,-0.50
2024-01-20T07:31:02.692Z,-0.50
2024-01-20T07:33:34.140Z,-0.50
2024-01-20T07:36:03.642Z,-0.50
2024-01-20T07:38:31.675Z,-0.50
2024-01-20T07:41:00.792Z,-0.50
2024-01-20T07:43:28.689Z,-0.40
2024-01-20T07:45:58.284Z,-0.40
2024-01-20T07:48:27.809Z,-0.40
2024-01-20T07:50:57.280Z,-0.40
2024-01-20T07:53:25.284Z,-0.40
2024-01-20T07:55:53.282Z,-0.40
2024-01-20T07:58:21.402Z,-0.40
2024-01-20T08:00:49.631Z,-0.40
2024-01-20T08:03:17.589Z,-0.30
2024-01-20T08:05:46.821Z,-0.30
2024-01-20T08:08:16.201Z,-0.30
2024-01-20T08:10:44.294Z,-0.30
2024-01-20T08:13:12.373Z,-0.30
2024-01-20T08:15:40.491Z,-0.20
2024-01-20T08:18:08.664Z,-0.20
2024-01-20T08:20:36.685Z,-0.20
2024-01-20T08:23:04.969Z,-0.20
2024-01-20T08:25:34.276Z,-0.20
2024-01-20T08:28:02.392Z,-0.20
2024-01-20T08:30:31.527Z,-0.10
2024-01-20T08:33:03.386Z,-0.10
2024-01-20T08:35:33.259Z,-0.10
2024-01-20T08:38:01.174Z,-0.10
2024-01-20T08:40:29.085Z,-0.10
2024-01-20T08:42:59.631Z,0.00
2024-01-20T08:45:27.974Z,0.00
2024-01-20T08:47:56.045Z,0.00
2024-01-20T08:50:24.111Z,0.00
2024-01-20T08:52:52.106Z,0.00
2024-01-20T08:55:20.083Z,0.10
2024-01-20T08:57:48.022Z,0.10
2024-01-20T09:00:18.161Z,0.10
2024-01-20T09:02:46.183Z,0.10
2024-01-20T09:05:15.055Z,0.10
2024-01-20T09:07:42.985Z,0.20
2024-01-20T09:10:11.514Z,0.20
2024-01-20T09:12:41.551Z,0.20
2024-01-20T09:15:11.228Z,0.30
2024-01-20T09:17:40.592Z,0.30
2024-01-20T09:20:10.251Z,0.30
2024-01-20T09:22:38.372Z,0.30
2024-01-20T09:25:07.195Z,0.30
2024-01-20T09:27:35.274Z,0.30
2024-01-20T09:30:03.323Z,0.40
2024-01-20T09:32:34.335Z,0.40
2024-01-20T09:35:06.039Z,0.40
2024-01-20T09:37:34.217Z,0.40
2024-01-20T09:40:02.571Z,0.50
2024-01-20T09:42:30.928Z,0.50
2024-01-20T09:44:59.277Z,0.50
2024-01-20T09:47:27.373Z,0.50
2024-01-20T09:49:55.538Z,0.50
2024-01-20T09:52:28.663Z,0.50
2024-01-20T09:55:10.586Z,0.50
2024-01-20T09:57:39.843Z,0.50
2024-01-20T10:00:09.866Z,0.50
2024-01-20T10:02:42.183Z,0.50
2024-01-20T10:05:12.128Z,0.50
2024-01-20T10:07:42.289Z,0.50
2024-01-20T10:10:11.878Z,0.50
2024-01-20T10:12:39.929Z,0.50
2024-01-20T10:15:08.765Z,0.60
2024-01-20T10:17:39.932Z,0.60
2024-01-20T10:20:08.433Z,0.50
2024-01-20T10:22:36.469Z,0.50
2024-01-20T10:25:08.746Z,0.50
2024-01-20T10:27:36.745Z,0.50
2024-01-20T10:30:05.221Z,0.50
2024-01-20T10:32:47.585Z,0.60
2024-01-20T10:35:22.206Z,0.60
2024-01-20T10:37:51.987Z,0.60
2024-01-20T10:40:21.406Z,0.60
2024-01-20T10:42:57.098Z,0.60
2024-01-20T10:45:26.201Z,0.60
2024-01-20T10:48:13.137Z,0.70
2024-01-20T10:50:45.390Z,0.70
2024-01-20T10:53:13.553Z,0.70
2024-01-20T10:55:44.385Z,0.70
2024-01-20T10:58:13.831Z,0.70
2024-01-20T11:00:43.012Z,0.70
2024-01-20T11:03:11.588Z,0.70
2024-01-20T11:05:39.858Z,0.70
2024-01-20T11:08:09.396Z,0.70
2024-01-20T11:10:42.254Z,0.70
2024-01-20T11:13:11.960Z,0.70
2024-01-20T11:15:42.643Z,0.70
2024-01-20T11:18:18.443Z,0.70
2024-01-20T11:20:58.449Z,0.70
2024-01-20T11:23:26.932Z,0.70
2024-01-20T11:25:57.150Z,0.70
2024-01-20T11:28:27.088Z,0.80
2024-01-20T11:30:55.244Z,0.70
2024-01-20T11:33:24.577Z,0.70
2024-01-20T11:35:53.901Z,0.80
2024-01-20T11:38:22.647Z,0.80
2024-01-20T11:41:02.480Z,0.80
2024-01-20T11:43:30.597Z,0.80
2024-01-20T11:45:58.838Z,0.80
2024-01-20T11:48:27.500Z,0.80
2024-01-20T11:50:55.888Z,0.80
2024-01-20T11:53:24.279Z,0.80
2024-01-20T11:55:57.043Z,0.80
2024-01-20T11:58:26.743Z,0.80
2024-01-20T12:00:56.741Z,0.70
2024-01-20T12:03:25.145Z,0.70
2024-01-20T12:05:53.589Z,0.70
2024-01-20T12:08:22.449Z,0.70
2024-01-20T12:10:51.394Z,0.70
2024-01-20T12:13:19.495Z,0.60
2024-01-20T12:15:50.880Z,0.60
2024-01-20T12:18:19.516Z,0.60
2024-01-20T12:20:47.651Z,0.60
2024-01-20T12:23:21.038Z,0.60
2024-01-20T12:25:52.398Z,0.50
2024-01-20T12:28:20.817Z,0.50
2024-01-20T12:30:50.572Z,0.50
2024-01-20T12:33:18.641Z,0.50
2024-01-20T12:35:46.956Z,0.50
2024-01-20T12:38:14.879Z,0.50
2024-01-20T12:40:42.851Z,0.50
2024-01-20T12:43:12.326Z,0.50
2024-01-20T12:45:40.437Z,0.50
2024-01-20T12:48:10.076Z,0.60
2024-01-20T12:50:38.156Z,0.60
2024-01-20T12:53:06.146Z,0.60
2024-01-20T12:55:34.100Z,0.60
2024-01-20T12:58:02.192Z,0.60
2024-01-20T13:00:30.256Z,0.70
2024-01-20T13:02:58.435Z,0.80
2024-01-20T13:05:27.925Z,0.80
2024-01-20T13:07:55.906Z,0.90
2024-01-20T13:10:23.900Z,1.00
2024-01-20T13:12:51.821Z,1.00
2024-01-20T13:15:20.177Z,1.00
2024-01-20T13:17:48.301Z,1.00
2024-01-20T13:20:16.434Z,1.00
2024-01-20T13:22:45.821Z,1.00
2024-01-20T13:25:14.146Z,1.10
2024-01-20T13:27:42.490Z,1.10
2024-01-20T13:30:11.697Z,1.10
2024-01-20T13:32:39.993Z,1.10
2024-01-20T13:35:09.290Z,1.10
2024-01-20T13:37:37.328Z,1.10
2024-01-20T13:40:09.412Z,1.10
2024-01-20T13:42:39.152Z,1.10
2024-01-20T13:45:09.179Z,1.20
2024-01-20T13:47:38.967Z,1.20
2024-01-20T13:50:08.214Z,1.20
2024-01-20T13:52:36.985Z,1.30
2024-01-20T13:55:07.401Z,1.30
2024-01-20T13:57:35.505Z,1.40
2024-01-20T14:00:03.749Z,1.40
2024-01-20T14:02:35.473Z,1.50
2024-01-20T14:05:03.885Z,1.50
2024-01-20T14:07:32.281Z,1.60
2024-01-20T14:10:00.380Z,1.60
2024-01-20T14:12:29.868Z,1.60
2024-01-20T14:14:58.155Z,1.70
2024-01-20T14:17:26.756Z,1.80
2024-01-20T14:19:55.017Z,1.80
2024-01-20T14:22:23.931Z,1.80
2024-01-20T14:24:52.603Z,1.90
2024-01-20T14:27:20.974Z,1.90
2024-01-20T14:29:50.409Z,2.00
2024-01-20T14:32:18.373Z,2.00
2024-01-20T14:34:46.572Z,2.10
2024-01-20T14:37:14.800Z,2.10
2024-01-20T14:39:42.950Z,2.10
2024-01-20T14:42:11.177Z,2.10
2024-01-20T14:44:39.166Z,2.10
2024-01-20T14:47:09.516Z,2.10
2024-01-20T14:49:37.515Z,2.20
2024-01-20T14:52:06.370Z,2.20
2024-01-20T14:54:34.702Z,2.10
2024-01-20T14:57:03.214Z,2.10
2024-01-20T14:59:31.363Z,2.00
2024-01-20T15:01:59.545Z,2.00
2024-01-20T15:04:30.460Z,2.00
2024-01-20T15:06:59.258Z,2.00
2024-01-20T15:09:30.393Z,2.00
2024-01-20T15:11:58.550Z,2.00
2024-01-20T15:14:26.738Z,2.00
2024-01-20T15:16:55.093Z,1.90
2024-01-20T15:19:23.378Z,1.90
2024-01-20T15:21:52.938Z,1.90
2024-01-20T15:24:21.109Z,1.90
2024-01-20T15:26:49.695Z,1.80
2024-01-20T15:29:17.708Z,1.80
2024-01-20T15:31:46.036Z,1.80
2024-01-20T15:34:14.263Z,1.70
2024-01-20T15:36:42.450Z,1.70
2024-01-20T15:39:12.077Z,1.70
2024-01-20T15:41:40.263Z,1.60
2024-01-20T15:44:09.806Z,1.60
2024-01-20T15:46:39.044Z,1.50
2024-01-20T15:49:07.822Z,1.50
2024-01-20T15:51:38.837Z,1.50
2024-01-20T15:54:07.548Z,1.40
2024-01-20T15:56:43.697Z,1.40
2024-01-20T15:59:12.557Z,1.30
2024-01-20T16:01:40.949Z,1.30
2024-01-20T16:04:10.017Z,1.30
2024-01-20T16:06:39.691Z,1.30
2024-01-20T16:09:08.403Z,1.20
2024-01-20T16:11:36.682Z,1.20
2024-01-20T16:14:06.352Z,1.20
2024-01-20T16:16:34.610Z,1.10
2024-01-20T16:19:02.880Z,1.10
2024-01-20T16:21:31.205Z,1.00
2024-01-20T16:23:59.180Z,1.00
2024-01-20T16:26:27.138Z,1.00
2024-01-20T16:28:55.682Z,0.90
2024-01-20T16:31:25.200Z,0.90
2024-01-20T16:33:53.449Z,0.90
2024-01-20T16:36:21.823Z,0.80
2024-01-20T16:38:50.063Z,0.80
2024-01-20T16:41:17.999Z,0.80
2024-01-20T16:43:46.188Z,0.70
2024-01-20T16:46:14.213Z,0.70
2024-01-20T16:48:43.687Z,0.70
2024-01-20T16:51:17.995Z,0.70
2024-01-20T16:53:50.604Z,0.60
2024-01-20T16:56:18.644Z,0.60
2024-01-20T16:58:46.560Z,0.60
2024-01-20T17:01:14.541Z,0.60
2024-01-20T17:03:44.231Z,0.50
2024-01-20T17:06:18.510Z,0.50
2024-01-20T17:08:46.456Z,0.50
2024-01-20T17:11:14.392Z,0.50
2024-01-20T17:13:44.561Z,0.50
2024-01-20T17:16:12.541Z,0.50
2024-01-20T17:18:40.580Z,0.40
2024-01-20T17:21:16.268Z,0.40
2024-01-20T17:23:44.545Z,0.40
2024-01-20T17:26:12.666Z,0.40
2024-01-20T17:28:40.668Z,0.40
2024-01-20T17:31:08.622Z,0.40
2024-01-20T17:33:36.686Z,0.30
2024-01-20T17:36:05.460Z,0.30
2024-01-20T17:38:35.222Z,0.30
2024-01-20T17:41:03.993Z,0.30
2024-01-20T17:43:31.978Z,0.30
2024-01-20T17:45:59.921Z,0.30
2024-01-20T17:48:28.018Z,0.30
2024-01-20T17:50:56.073Z,0.30
2024-01-20T17:53:24.217Z,0.20
2024-01-20T17:55:53.542Z,0.20
2024-01-20T17:58:21.693Z,0.20
2024-01-20T18:00:49.786Z,0.20
2024-01-20T18:03:17.962Z,0.20
2024-01-20T18:05:46.075Z,0.20
2024-01-20T18:08:14.083Z,0.20
2024-01-20T18:10:43.930Z,0.20
2024-01-20T18:13:13.278Z,0.20
2024-01-20T18:15:41.679Z,0.20
2024-01-20T18:18:09.818Z,0.20
2024-01-20T18:20:37.812Z,0.10
2024-01-20T18:23:06.109Z,0.10
2024-01-20T18:25:35.174Z,0.10
2024-01-20T18:28:03.126Z,0.10
2024-01-20T18:30:32.792Z,0.10
2024-01-20T18:33:01.015Z,0.10
2024-01-20T18:35:29.144Z,0.10
2024-01-20T18:37:57.077Z,0.10
2024-01-20T18:40:25.130Z,0.10
2024-01-20T18:42:53.263Z,0.10
2024-01-20T18:45:21.290Z,0.00
2024-01-20T18:47:50.703Z,0.10
2024-01-20T18:50:18.941Z,0.00
2024-01-20T18:52:47.393Z,0.00
2024-01-20T18:55:15.513Z,0.00
2024-01-20T18:57:43.433Z,0.00
2024-01-20T19:00:13.960Z,-0.10
2024-01-20T19:02:42.042Z,-0.10
2024-01-20T19:05:11.528Z,-0.10
2024-01-20T19:07:39.507Z,-0.10
2024-01-20T19:10:10.720Z,-0.10
2024-01-20T19:12:39.299Z,-0.10
2024-01-20T19:15:09.742Z,-0.10
2024-01-20T19:17:38.158Z,-0.20
2024-01-20T19:20:07.464Z,-0.20
2024-01-20T19:22:36.808Z,-0.20
2024-01-20T19:25:05.680Z,-0.20
2024-01-20T19:27:33.805Z,-0.20
2024-01-20T19:30:01.695Z,-0.20
2024-01-20T19:32:29.705Z,-0.20
2024-01-20T19:34:57.754Z,-0.30
2024-01-20T19:37:25.796Z,-0.30
2024-01-20T19:39:55.112Z,-0.30
2024-01-20T19:42:23.156Z,-0.20
2024-01-20T19:44:52.165Z,-0.30
2024-01-20T19:47:21.052Z,-0.30
2024-01-20T19:49:50.611Z,-0.30
2024-01-20T19:52:18.805Z,-0.30
2024-01-20T19:54:46.845Z,-0.30
2024-01-20T19:57:16.641Z,-0.30
2024-01-20T19:59:44.729Z,-0.30
2024-01-20T20:02:12.812Z,-0.30
2024-01-20T20:04:40.924Z,-0.30
2024-01-20T20:07:10.467Z,-0.30
2024-01-20T20:09:39.617Z,-0.30
2024-01-20T20:12:08.356Z,-0.30
2024-01-20T20:14:37.769Z,-0.30
2024-01-20T20:17:07.381Z,-0.30
2024-01-20T20:19:35.788Z,-0.30
2024-01-20T20:22:03.961Z,-0.30
2024-01-20T20:24:31.922Z,-0.40
2024-01-20T20:26:59.841Z,-0.40
2024-01-20T20:29:28.748Z,-0.40
2024-01-20T20:31:58.352Z,-0.40
2024-01-20T20:34:26.421Z,-0.40
2024-01-20T20:36:55.998Z,-0.40
2024-01-20T20:39:24.341Z,-0.40
2024-01-20T20:41:53.801Z,-0.40
2024-01-20T20:44:21.906Z,-0.40
2024-01-20T20:46:49.891Z,-0.40
2024-01-20T20:49:19.471Z,-0.40
2024-01-20T20:51:47.611Z,-0.40
2024-01-20T20:54:15.663Z,-0.40
2024-01-20T20:56:43.816Z,-0.40
2024-01-20T20:59:11.959Z,-0.40
2024-01-20T21:01:39.979Z,-0.40
2024-01-20T21:04:11.142Z,-0.40
2024-01-20T21:06:41.623Z,-0.50
2024-01-20T21:09:09.962Z,-0.50
2024-01-20T21:11:37.934Z,-0.50
2024-01-20T21:14:05.815Z,-0.50
2024-01-20T21:16:33.819Z,-0.50
2024-01-20T21:19:02.312Z,-0.50
2024-01-20T21:21:30.547Z,-0.50
2024-01-20T21:24:01.532Z,-0.50
2024-01-20T21:26:30.534Z,-0.50
2024-01-20T21:28:58.687Z,-0.50
2024-01-20T21:31:26.843Z,-0.50
2024-01-20T21:33:54.951Z,-0.50
2024-01-20T21:36:24.058Z,-0.60
2024-01-20T21:38:52.207Z,-0.60
2024-01-20T21:41:21.598Z,-0.60
2024-01-20T21:43:49.624Z,-0.60
2024-01-20T21:46:17.968Z,-0.60
2024-01-20T21:48:46.387Z,-0.60
2024-01-20T21:51:15.079Z,-0.60
2024-01-20T21:53:43.045Z,-0.60
2024-01-20T21:56:11.075Z,-0.60
2024-01-20T21:58:40.476Z,-0.50
2024-01-20T22:01:08.550Z,-0.60
2024-01-20T22:03:36.678Z,-0.60
2024-01-20T22:06:04.911Z,-0.60
2024-01-20T22:08:33.329Z,-0.60
2024-01-20T22:11:01.275Z,-0.50
2024-01-20T22:13:31.135Z,-0.50
2024-01-20T22:16:01.238Z,-0.50
2024-01-20T22:18:29.609Z,-0.60
2024-01-20T22:20:59.702Z,-0.60
2024-01-20T22:23:27.605Z,-0.60
2024-01-20T22:25:55.559Z,-0.60
2024-01-20T22:28:23.711Z,-0.60
2024-01-20T22:30:52.026Z,-0.60
2024-01-20T22:33:23.377Z,-0.60
2024-01-20T22:35:51.499Z,-0.60
2024-01-20T22:38:19.704Z,-0.60
2024-01-20T22:40:47.976Z,-0.70
2024-01-20T22:43:16.119Z,-0.60
2024-01-20T22:45:44.246Z,-0.60
2024-01-20T22:48:12.682Z,-0.60
2024-01-20T22:50:42.185Z,-0.60
2024-01-20T22:53:10.286Z,-0.60
2024-01-20T22:55:38.594Z,-0.70
2024-01-20T22:58:06.690Z,-0.70
2024-01-20T23:00:38.244Z,-0.70
2024-01-20T23:03:07.360Z,-0.70
2024-01-20T23:05:35.666Z,-0.80
2024-01-20T23:08:05.749Z,-0.80
2024-01-20T23:10:33.860Z,-0.80
2024-01-20T23:13:02.212Z,-0.80
2024-01-20T23:15:30.415Z,-0.90
2024-01-20T23:17:58.349Z,-0.90
2024-01-20T23:20:26.296Z,-0.90
2024-01-20T23:22:54.255Z,-0.90
2024-01-20T23:25:23.616Z,-0.90
2024-01-20T23:27:51.624Z,-0.90
2024-01-20T23:30:20.964Z,-0.90
2024-01-20T23:32:49.093Z,-0.90
2024-01-20T23:35:17.222Z,-0.90
2024-01-20T23:37:45.173Z,-0.90
2024-01-20T23:40:13.533Z,-0.90
2024-01-20T23:42:42.922Z,-0.90
2024-01-20T23:45:13.260Z,-0.90
2024-01-20T23:47:41.403Z,-0.90
2024-01-20T23:50:10.405Z,-0.90
2024-01-20T23:52:38.443Z,-0.80
2024-01-20T23:55:07.176Z,-0.80
2024-01-20T23:57:39.651Z,-0.80
